Time;durP1;ratioP1;P1;durP2;ratioP2;P2;SDS_P1;SDS_P2;PMS_P1;PMS_P2;Temp;Humidity;BMP_temperature;BMP_pressure;BME280_temperature;BME280_humidity;BME280_pressure;Samples;Min_cycle;Max_cycle;Signal;HPM_P1;HPM_P2
2022/09/01 00:01:24;;;;;;;8.70;5.80;;;;;;;14.60;100.00;98952.44;5055978;28;20024;-60
2022/09/01 00:03:51;;;;;;;7.80;6.07;;;;;;;14.65;100.00;98950.69;5049432;28;20032;-62
2022/09/01 00:06:22;;;;;;;9.20;6.78;;;;;;;14.64;100.00;98949.00;5053557;28;20025;-63
2022/09/01 00:08:53;;;;;;;8.68;6.57;;;;;;;14.57;100.00;98948.28;5052518;28;20436;-61
2022/09/01 00:11:20;;;;;;;10.80;6.65;;;;;;;14.59;100.00;98956.19;5073661;28;20028;-61
2022/09/01 00:13:46;;;;;;;7.95;6.28;;;;;;;14.64;100.00;98949.00;5050807;28;20127;-57
2022/09/01 00:16:15;;;;;;;10.80;6.32;;;;;;;14.57;100.00;98952.91;5050792;28;20016;-57
2022/09/01 00:18:43;;;;;;;10.50;7.18;;;;;;;14.63;100.00;98950.09;5052424;28;20028;-56
2022/09/01 00:21:10;;;;;;;8.00;6.00;;;;;;;14.59;100.00;98953.47;5044460;28;20542;-57
2022/09/01 00:23:36;;;;;;;10.02;6.63;;;;;;;14.66;100.00;98948.81;5042645;28;20454;-57
2022/09/01 00:26:02;;;;;;;9.95;6.13;;;;;;;14.68;100.00;98949.41;5050374;28;20219;-57
2022/09/01 00:28:27;;;;;;;8.27;5.97;;;;;;;14.71;100.00;98951.69;5052044;28;20388;-57
2022/09/01 00:30:52;;;;;;;7.95;5.65;;;;;;;14.65;100.00;98956.16;5048246;28;20028;-57
2022/09/01 00:33:18;;;;;;;7.95;5.90;;;;;;;14.58;100.00;98952.66;5050369;28;20438;-57
2022/09/01 00:35:43;;;;;;;9.00;6.22;;;;;;;14.53;100.00;98952.50;5051577;28;20112;-57
2022/09/01 00:38:09;;;;;;;7.65;6.32;;;;;;;14.58;100.00;98940.94;5053614;28;20031;-57
2022/09/01 00:40:35;;;;;;;8.77;6.00;;;;;;;14.55;100.00;98944.94;5052559;28;20454;-60
2022/09/01 00:43:10;;;;;;;9.30;6.13;;;;;;;14.58;100.00;98941.75;5049313;28;20028;-56
2022/09/01 00:45:36;;;;;;;9.45;6.35;;;;;;;14.64;100.00;98945.47;5052900;28;20104;-57
2022/09/01 00:48:04;;;;;;;7.68;5.80;;;;;;;14.66;100.00;98940.63;5053511;28;20115;-57
2022/09/01 00:50:31;;;;;;;8.20;5.85;;;;;;;14.63;100.00;98944.63;5050302;28;20020;-57
2022/09/01 00:52:56;;;;;;;9.45;6.03;;;;;;;14.59;100.00;98948.03;5049443;28;20039;-60
2022/09/01 00:55:27;;;;;;;8.20;5.90;;;;;;;14.52;100.00;98933.66;5051875;28;20469;-58
2022/09/01 00:57:54;;;;;;;10.07;6.40;;;;;;;14.54;100.00;98937.00;5048129;28;20082;-57
2022/09/01 01:00:24;;;;;;;7.97;6.07;;;;;;;14.42;100.00;98934.16;5050739;28;20490;-57
2022/09/01 01:02:54;;;;;;;8.25;5.95;;;;;;;14.39;100.00;98940.06;5043595;28;20036;-58
2022/09/01 01:05:31;;;;;;;8.82;6.43;;;;;;;14.32;100.00;98933.84;5052255;28;20027;-57
2022/09/01 01:08:00;;;;;;;10.15;6.45;;;;;;;14.26;100.00;98930.13;5054167;28;20044;-57
2022/09/01 01:10:31;;;;;;;8.90;6.20;;;;;;;14.28;100.00;98933.47;5048348;28;20032;-57
2022/09/01 01:13:00;;;;;;;10.90;7.00;;;;;;;14.16;100.00;98927.91;5046590;28;20063;-57
2022/09/01 01:15:27;;;;;;;;;;;;;;;14.29;100.00;98940.56;5043954;28;20027;-57
2022/09/01 01:17:52;;;;;;;10.57;6.32;;;;;;;14.26;100.00;98930.13;5051329;28;19916;-57
2022/09/01 01:23:19;;;;;;;11.75;7.05;;;;;;;14.30;100.00;98936.78;5065544;28;20518;-57
2022/09/01 01:25:55;;;;;;;7.53;6.10;;;;;;;14.22;100.00;98932.44;5067218;28;20782;-57
2022/09/01 01:28:27;;;;;;;11.20;7.75;;;;;;;14.25;100.00;98932.03;5050717;28;20021;-57
2022/09/01 01:30:58;;;;;;;11.98;7.10;;;;;;;14.19;100.00;98927.47;5045358;28;20067;-57
2022/09/01 01:33:30;;;;;;;12.88;7.72;;;;;;;14.22;100.00;98929.72;5050699;28;20044;-57
2022/09/01 01:35:56;;;;;;;8.30;6.85;;;;;;;14.21;100.00;98936.25;5030344;28;20059;-57
2022/09/01 01:38:22;;;;;;;10.10;7.15;;;;;;;14.25;100.00;98929.31;5041740;28;20024;-59
2022/09/01 01:40:49;;;;;;;12.48;8.27;;;;;;;14.28;100.00;98933.47;5051799;28;20444;-57
2022/09/01 01:43:18;;;;;;;9.73;7.57;;;;;;;14.29;100.00;98923.41;5052438;28;20044;-57
2022/09/01 01:45:57;;;;;;;12.35;7.60;;;;;;;14.36;100.00;98924.19;5051034;28;20024;-56
2022/09/01 01:48:23;;;;;;;10.65;7.80;;;;;;;14.34;100.00;98923.56;5045013;28;20028;-57
2022/09/01 01:50:51;;;;;;;10.80;7.90;;;;;;;14.37;100.00;98923.94;5051410;28;20037;-57
2022/09/01 01:53:18;;;;;;;10.52;7.85;;;;;;;14.29;100.00;98928.84;5048477;28;20388;-57
2022/09/01 01:55:44;;;;;;;9.90;7.55;;;;;;;14.25;100.00;98926.59;5049950;28;20399;-57
2022/09/01 01:58:14;;;;;;;14.57;8.77;;;;;;;14.30;100.00;98936.78;5051576;28;20024;-57
2022/09/01 02:00:45;;;;;;;10.73;7.55;;;;;;;14.36;100.00;98933.16;5051531;28;20024;-57
2022/09/01 02:03:11;;;;;;;12.52;7.45;;;;;;;14.39;100.00;98935.44;5049397;28;20032;-57
2022/09/01 02:05:37;;;;;;;11.38;6.72;;;;;;;14.50;100.00;98944.75;5051351;28;20029;-57
2022/09/01 02:08:09;;;;;;;9.65;6.68;;;;;;;14.44;100.00;98943.78;5049168;28;20496;-57
2022/09/01 02:10:40;;;;;;;11.38;7.38;;;;;;;14.36;100.00;98943.22;5051168;28;20486;-56
2022/09/01 02:13:06;;;;;;;11.48;7.55;;;;;;;14.23;100.00;98939.56;5050726;28;20032;-56
2022/09/01 02:15:41;;;;;;;13.50;8.07;;;;;;;14.19;100.00;98948.41;5051312;28;20023;-56
2022/09/01 02:18:06;;;;;;;18.60;8.40;;;;;;;14.11;100.00;98943.25;5050699;28;20060;-56
2022/09/01 02:20:31;;;;;;;11.80;8.50;;;;;;;14.06;100.00;98943.91;5044527;28;20117;-56
2022/09/01 02:22:57;;;;;;;15.55;9.00;;;;;;;14.02;100.00;98942.69;5049524;28;20028;-56
2022/09/01 02:25:23;;;;;;;12.23;8.90;;;;;;;14.01;100.00;98941.84;5045251;28;20436;-56
2022/09/01 02:27:52;;;;;;;12.80;9.40;;;;;;;13.92;100.00;98943.19;5051706;28;20029;-56
2022/09/01 02:30:18;;;;;;;17.20;9.65;;;;;;;13.88;100.00;98932.97;5048985;28;20031;-56
2022/09/01 02:32:43;;;;;;;15.15;10.18;;;;;;;13.81;100.00;98925.72;5053226;28;20024;-56
2022/09/01 02:35:10;;;;;;;13.65;9.90;;;;;;;13.85;100.00;98933.41;5048836;28;20029;-56
2022/09/01 02:37:38;;;;;;;20.38;10.80;;;;;;;13.81;100.00;98933.88;5051677;28;20031;-56
2022/09/01 02:40:05;;;;;;;14.15;11.02;;;;;;;13.79;100.00;98935.13;5045340;28;20036;-56
2022/09/01 02:42:31;;;;;;;18.95;11.02;;;;;;;13.77;100.00;98932.63;5050110;28;20107;-56
2022/09/01 02:44:57;;;;;;;18.88;12.10;;;;;;;13.87;100.00;98932.13;5050337;28;20561;-56
2022/09/01 02:47:25;;;;;;;16.70;12.13;;;;;;;13.96;100.00;98929.97;5055978;28;20024;-57
2022/09/01 02:49:51;;;;;;;18.20;11.85;;;;;;;14.08;100.00;98925.47;5053957;28;20032;-57
2022/09/01 02:52:19;;;;;;;16.10;11.63;;;;;;;14.04;100.00;98926.97;5052767;28;20024;-56
2022/09/01 02:54:47;;;;;;;17.55;12.18;;;;;;;14.08;100.00;98930.91;5044410;28;20025;-56
2022/09/01 02:57:13;;;;;;;17.10;12.38;;;;;;;14.10;100.00;98930.72;5043512;28;20101;-56
2022/09/01 02:59:40;;;;;;;18.30;12.65;;;;;;;14.10;100.00;98928.81;5060192;28;20032;-57
2022/09/01 03:02:07;;;;;;;19.88;13.43;;;;;;;14.13;100.00;98931.09;5049505;28;20422;-56
2022/09/01 03:04:34;;;;;;;24.20;12.68;;;;;;;14.12;100.00;98934.88;5047313;28;20134;-56
2022/09/01 03:07:00;;;;;;;17.67;11.82;;;;;;;13.98;100.00;98934.13;5051722;28;20035;-56
2022/09/01 03:09:26;;;;;;;18.08;12.52;;;;;;;13.88;100.00;98933.78;5047394;28;20036;-56
2022/09/01 03:11:53;;;;;;;23.40;13.05;;;;;;;13.81;100.00;98933.88;5042261;28;20121;-57
2022/09/01 03:14:20;;;;;;;19.67;12.18;;;;;;;13.73;100.00;98934.13;5050016;28;20020;-56
2022/09/01 03:16:46;;;;;;;18.75;11.98;;;;;;;13.68;100.00;98923.09;5053202;28;20387;-56
2022/09/01 03:19:13;;;;;;;19.98;12.70;;;;;;;13.66;100.00;98938.78;5054443;28;20028;-56
2022/09/01 03:21:40;;;;;;;20.67;12.52;;;;;;;13.62;100.00;98939.44;5057853;28;20028;-56
2022/09/01 03:24:08;;;;;;;21.67;13.95;;;;;;;13.56;100.00;98925.66;5055937;28;20032;-56
2022/09/01 03:26:35;;;;;;;18.98;12.45;;;;;;;13.59;100.00;98935.28;5046525;22;20088;-68
2022/09/01 03:29:00;;;;;;;19.17;12.75;;;;;;;13.58;100.00;98925.47;5030536;28;20068;-69
2022/09/01 03:31:27;;;;;;;20.77;12.40;;;;;;;13.58;100.00;98930.91;5028508;28;20367;-68
2022/09/01 03:33:56;;;;;;;17.80;11.93;;;;;;;13.70;100.00;98934.59;5032968;28;20029;-68
2022/09/01 03:36:23;;;;;;;19.20;11.95;;;;;;;13.80;100.00;98937.63;5018222;28;20022;-68
2022/09/01 03:38:50;;;;;;;21.20;13.50;;;;;;;13.95;100.00;98933.75;5018176;28;20025;-68
2022/09/01 03:41:20;;;;;;;17.15;11.75;;;;;;;14.10;100.00;98942.41;4995709;28;20076;-68
2022/09/01 03:43:46;;;;;;;17.75;11.85;;;;;;;14.18;100.00;98939.41;5002472;28;20025;-68
2022/09/01 03:46:18;;;;;;;17.65;12.25;;;;;;;14.19;100.00;98932.91;5020248;28;20031;-68
2022/09/01 03:48:44;;;;;;;19.00;12.50;;;;;;;14.17;100.00;98936.91;5022649;28;20380;-68
2022/09/01 03:51:13;;;;;;;16.48;11.85;;;;;;;14.05;100.00;98936.81;5005654;28;20034;-68
2022/09/01 03:53:39;;;;;;;16.40;11.67;;;;;;;13.82;100.00;98932.78;5032042;28;20387;-68
2022/09/01 03:56:05;;;;;;;19.52;12.30;;;;;;;13.41;100.00;98883.53;5016093;28;20536;-68
2022/09/01 03:58:30;;;;;;;17.17;11.50;;;;;;;13.55;100.00;98925.91;5016310;28;20042;-68
2022/09/01 04:00:59;;;;;;;18.63;11.27;;;;;;;13.50;100.00;98936.59;5011774;28;21876;-68
2022/09/01 04:03:26;;;;;;;17.80;12.07;;;;;;;13.38;100.00;98928.31;5010105;28;20030;-68
2022/09/01 04:05:53;;;;;;;23.63;13.38;;;;;;;13.33;100.00;98925.41;5012659;28;20033;-68
2022/09/01 04:08:20;;;;;;;22.52;14.32;;;;;;;13.34;100.00;98932.53;5020234;28;20064;-71
2022/09/01 04:10:51;;;;;;;22.02;14.52;;;;;;;13.18;100.00;98912.09;5018095;28;20049;-72
2022/09/01 04:13:17;;;;;;;29.65;15.32;;;;;;;13.37;100.00;98927.47;5008860;28;20144;-70
2022/09/01 04:15:43;;;;;;;21.02;13.93;;;;;;;13.27;100.00;98905.38;5007088;28;20029;-70
2022/09/01 04:18:09;;;;;;;26.13;14.60;;;;;;;13.22;100.00;98907.88;5010518;28;20021;-70
2022/09/01 04:20:47;;;;;;;19.73;13.82;;;;;;;13.37;100.00;98932.91;5006432;28;20100;-75
2022/09/01 04:23:30;;;;;;;21.58;13.40;;;;;;;13.17;100.00;98926.72;4997078;28;20048;-70
2022/09/01 04:26:08;;;;;;;23.42;14.45;;;;;;;13.21;100.00;98946.16;5013980;28;20032;-72
2022/09/01 04:28:36;;;;;;;21.50;13.52;;;;;;;13.16;100.00;98944.91;5006555;28;20440;-74
2022/09/01 04:31:07;;;;;;;23.00;15.33;;;;;;;13.08;100.00;98942.44;5011917;28;20040;-75
2022/09/01 04:33:37;;;;;;;23.50;16.02;;;;;;;13.12;100.00;98937.41;5010463;28;20017;-72
2022/09/01 04:36:13;;;;;;;21.17;14.18;;;;;;;13.30;100.00;98942.16;4994945;28;20030;-74
2022/09/01 04:38:38;;;;;;;24.08;14.85;;;;;;;13.44;100.00;98932.03;4998584;28;20025;-68
2022/09/01 04:41:05;;;;;;;24.58;14.43;;;;;;;13.61;100.00;98949.47;5009062;28;20396;-71
2022/09/01 04:43:31;;;;;;;24.05;15.15;;;;;;;13.58;100.00;98952.66;5017151;28;20057;-70
2022/09/01 04:45:58;;;;;;;26.58;15.00;;;;;;;13.70;100.00;98952.75;5003602;28;20030;-71
2022/09/01 04:48:24;;;;;;;28.90;17.42;;;;;;;13.73;100.00;98953.19;4994508;28;20041;-71
2022/09/01 04:50:50;;;;;;;25.98;16.08;;;;;;;13.75;100.00;98953.78;5006164;28;20026;-70
2022/09/01 04:53:17;;;;;;;27.63;16.17;;;;;;;13.73;100.00;98936.84;5010529;28;20048;-72
2022/09/01 04:55:43;;;;;;;29.52;16.65;;;;;;;13.87;100.00;98953.06;5012061;28;20040;-67
2022/09/01 04:58:12;;;;;;;28.48;16.52;;;;;;;13.96;100.00;98943.56;5012985;28;20029;-67
2022/09/01 05:00:38;;;;;;;;;;;;;;;14.06;100.00;98956.69;5012733;28;20026;-66
2022/09/01 05:03:03;;;;;;;26.40;15.40;;;;;;;14.15;100.00;98955.38;4993769;28;19920;-68
2022/09/01 05:05:59;;;;;;;25.38;15.77;;;;;;;14.18;100.00;98955.75;4994821;28;20029;-67
2022/09/01 05:08:24;;;;;;;28.67;15.93;;;;;;;14.19;100.00;98956.56;5013545;28;20038;-67
2022/09/01 05:10:54;;;;;;;30.10;16.35;;;;;;;14.28;100.00;98960.69;5015163;28;20031;-68
2022/09/01 05:13:22;;;;;;;32.15;16.23;;;;;;;14.19;100.00;98948.41;5006767;28;20472;-70
2022/09/01 05:16:00;;;;;;;27.35;14.80;;;;;;;14.23;100.00;98964.06;5014118;28;20018;-66
2022/09/01 05:18:26;;;;;;;29.33;15.43;;;;;;;14.20;100.00;98959.06;5007277;28;20474;-71
2022/09/01 05:20:53;;;;;;;29.48;16.05;;;;;;;14.25;100.00;98967.41;4996907;28;20037;-70
2022/09/01 05:23:19;;;;;;;29.70;15.82;;;;;;;14.28;100.00;98966.13;5012372;28;20025;-70
2022/09/01 05:25:48;;;;;;;28.88;16.33;;;;;;;14.30;100.00;98966.72;5016027;28;20028;-74
2022/09/01 05:28:17;;;;;;;;;;;;;;;14.46;100.00;98971.59;5014126;28;20109;-72
2022/09/01 05:30:45;;;;;;;24.83;14.52;;;;;;;14.53;100.00;98957.13;4991977;28;19923;-74
2022/09/01 05:33:15;;;;;;;29.15;14.52;;;;;;;14.80;100.00;98972.13;5001611;28;20036;-72
2022/09/01 05:35:54;;;;;;;25.08;14.95;;;;;;;14.74;100.00;98944.94;4992314;28;20026;-71
2022/09/01 05:38:20;;;;;;;25.98;14.95;;;;;;;15.07;100.00;98971.81;5000875;28;20040;-72
2022/09/01 05:40:56;;;;;;;28.58;14.68;;;;;;;15.16;100.00;98961.41;5012512;28;20030;-73
2022/09/01 05:43:22;;;;;;;25.08;14.98;;;;;;;15.33;100.00;98965.19;5010329;28;20014;-73
2022/09/01 05:45:48;;;;;;;26.92;14.95;;;;;;;15.50;100.00;98960.72;5012766;28;20479;-72
2022/09/01 05:48:20;;;;;;;26.10;15.23;;;;;;;15.63;100.00;98953.44;5012351;28;20096;-73
2022/09/01 05:50:48;;;;;;;24.73;14.38;;;;;;;15.86;100.00;98964.44;5013170;28;20033;-73
2022/09/01 05:53:16;;;;;;;22.52;14.10;;;;;;;15.88;100.00;98964.22;5009665;28;20050;-72
2022/09/01 05:55:45;;;;;;;22.17;13.23;;;;;;;15.98;100.00;98959.00;5009600;28;20053;-73
2022/09/01 05:58:13;;;;;;;24.45;14.27;;;;;;;16.06;100.00;98966.00;5011906;28;20025;-72
2022/09/01 06:00:45;;;;;;;23.80;14.30;;;;;;;16.35;100.00;98962.38;5002092;28;20018;-72
2022/09/01 06:03:13;;;;;;;21.33;12.50;;;;;;;16.56;100.00;98946.47;5012467;28;20105;-74
2022/09/01 06:05:39;;;;;;;22.45;13.27;;;;;;;16.84;100.00;98940.25;4993219;28;20407;-75
2022/09/01 06:08:06;;;;;;;22.23;14.13;;;;;;;16.92;100.00;98953.53;4991140;28;21501;-73
2022/09/01 06:10:37;;;;;;;22.27;13.13;;;;;;;17.05;100.00;98946.97;5008020;28;20423;-72
2022/09/01 06:13:02;;;;;;;20.95;12.30;;;;;;;17.35;100.00;98952.25;5009168;28;20137;-74
2022/09/01 06:15:29;;;;;;;20.83;13.90;;;;;;;17.46;100.00;98961.47;5012756;28;21487;-74
2022/09/01 06:17:55;;;;;;;21.50;13.70;;;;;;;17.52;100.00;98957.75;5010967;28;20034;-69
2022/09/01 06:20:21;;;;;;;20.33;13.23;;;;;;;17.47;100.00;98952.19;4999756;28;20565;-68
2022/09/01 06:22:47;;;;;;;19.90;13.15;;;;;;;17.78;100.00;98947.28;5004329;28;20431;-68
2022/09/01 06:25:16;;;;;;;20.80;13.13;;;;;;;18.32;100.00;98939.44;5009444;28;20036;-67
2022/09/01 06:27:43;;;;;;;21.30;13.37;;;;;;;19.60;92.60;98957.59;5014879;28;20510;-67
2022/09/01 06:30:19;;;;;;;20.08;11.95;;;;;;;21.02;78.70;98951.56;5009583;28;20097;-67
2022/09/01 06:32:45;;;;;;;16.67;11.30;;;;;;;22.20;68.51;98947.19;5004560;28;20512;-67
2022/09/01 06:35:14;;;;;;;15.68;11.00;;;;;;;24.11;59.63;98959.19;5009700;28;20036;-67
2022/09/01 06:37:42;;;;;;;18.63;11.38;;;;;;;23.95;60.82;98959.28;5004381;28;20033;-67
2022/09/01 06:40:09;;;;;;;15.38;11.00;;;;;;;24.28;59.64;98954.03;5003326;28;20065;-72
2022/09/01 06:42:36;;;;;;;17.33;11.90;;;;;;;25.20;56.30;98949.53;5009087;28;20080;-72
2022/09/01 06:45:03;;;;;;;14.07;9.82;;;;;;;25.63;54.05;98949.53;5009060;28;20022;-66
2022/09/01 06:47:28;;;;;;;15.18;9.48;;;;;;;25.78;53.10;98947.34;5006845;28;20120;-66
2022/09/01 06:49:57;;;;;;;15.02;10.27;;;;;;;24.22;56.60;98961.56;5000431;28;20026;-67
2022/09/01 06:52:23;;;;;;;;;;;;;;;23.04;61.28;98955.06;5010145;28;20032;-67
2022/09/01 06:54:52;;;;;;;14.88;10.52;;;;;;;22.87;62.19;98953.44;5005181;28;20004;-65
2022/09/01 06:57:18;;;;;;;18.23;11.15;;;;;;;22.03;65.69;98952.09;5009390;28;20060;-65
2022/09/01 06:59:44;;;;;;;15.32;11.23;;;;;;;21.26;68.81;98959.34;5002605;28;20061;-68
2022/09/01 07:02:17;;;;;;;14.77;10.77;;;;;;;20.84;73.06;98960.25;5005061;28;20352;-68
2022/09/01 07:04:43;;;;;;;17.10;11.77;;;;;;;20.33;78.73;98964.31;5007791;28;20557;-68
2022/09/01 07:07:09;;;;;;;15.98;11.55;;;;;;;20.16;78.76;98951.81;5008815;28;20042;-69
2022/09/01 07:09:35;;;;;;;15.23;11.15;;;;;;;20.39;78.30;98964.34;5009496;28;20026;-65
2022/09/01 07:12:02;;;;;;;15.13;10.57;;;;;;;20.32;79.69;98970.06;5005710;28;20100;-65
2022/09/01 07:14:29;;;;;;;14.35;10.23;;;;;;;20.53;77.71;98971.03;5012333;28;20022;-67
2022/09/01 07:16:56;;;;;;;13.55;9.35;;;;;;;20.53;77.42;98968.28;5009614;28;20121;-66
2022/09/01 07:19:21;;;;;;;13.88;9.43;;;;;;;21.22;74.35;98965.41;5012061;28;20030;-66
2022/09/01 07:21:46;;;;;;;12.95;9.20;;;;;;;23.63;62.75;98963.34;4983973;28;20368;-67
2022/09/01 07:24:18;;;;;;;12.73;7.88;;;;;;;26.79;52.95;98950.69;5005470;28;20025;-67
2022/09/01 07:26:46;;;;;;;11.30;7.78;;;;;;;28.87;46.12;98940.63;5002800;28;20026;-66
2022/09/01 07:29:12;;;;;;;10.75;7.88;;;;;;;30.49;43.18;98933.13;5008302;28;20025;-68
2022/09/01 07:31:41;;;;;;;11.25;7.88;;;;;;;31.51;39.59;98947.38;5003934;28;20396;-69
2022/09/01 07:34:11;;;;;;;9.57;6.82;;;;;;;31.22;40.03;98951.78;5013846;28;20028;-69
2022/09/01 07:36:38;;;;;;;13.48;7.00;;;;;;;31.84;39.25;98951.09;4985798;28;20025;-66
2022/09/01 07:39:04;;;;;;;7.72;6.30;;;;;;;32.00;38.17;98944.91;5007875;28;20113;-68
2022/09/01 07:41:31;;;;;;;11.02;5.47;;;;;;;33.29;36.05;98949.44;5007643;28;20290;-68
2022/09/01 07:43:58;;;;;;;8.50;6.40;;;;;;;32.78;36.57;98952.53;5007026;28;20036;-67
2022/09/01 07:46:24;;;;;;;6.50;5.63;;;;;;;31.33;37.61;98963.41;5010035;28;20030;-65
2022/09/01 07:48:52;;;;;;;7.60;5.70;;;;;;;31.42;38.29;98953.84;5012927;28;20729;-70
2022/09/01 07:51:19;;;;;;;6.53;5.10;;;;;;;33.05;35.32;98959.47;5005934;28;20495;-67
2022/09/01 07:53:47;;;;;;;7.93;5.07;;;;;;;33.01;35.19;98955.72;5005921;28;20033;-67
2022/09/01 07:56:14;;;;;;;6.68;5.43;;;;;;;32.87;35.48;98956.03;5011188;28;20029;-73
2022/09/01 07:58:43;;;;;;;5.07;4.13;;;;;;;34.41;32.54;98948.84;5000429;28;20045;-71
2022/09/01 08:01:16;;;;;;;4.63;3.40;;;;;;;33.58;32.58;98929.56;4997398;28;20357;-72
2022/09/01 08:03:43;;;;;;;3.97;3.40;;;;;;;33.69;32.60;98952.31;4992846;28;20060;-70
2022/09/01 08:06:12;;;;;;;4.95;3.78;;;;;;;34.78;30.77;98951.47;5011451;28;20061;-70
2022/09/01 08:08:39;;;;;;;4.40;2.42;;;;;;;34.18;30.56;98963.44;5009031;28;20057;-73
2022/09/01 08:11:05;;;;;;;3.45;2.70;;;;;;;33.38;31.83;98959.38;5011895;28;20034;-71
2022/09/01 08:13:36;;;;;;;3.95;2.20;;;;;;;33.51;31.60;98945.31;5010507;28;20036;-71
2022/09/01 08:16:04;;;;;;;3.00;2.67;;;;;;;33.21;31.57;98968.00;4992912;28;20028;-71
2022/09/01 08:18:30;;;;;;;3.03;2.30;;;;;;;32.09;33.14;98954.88;4992429;28;20247;-70
2022/09/01 08:20:56;;;;;;;4.75;2.67;;;;;;;29.61;37.08;98958.59;4991840;28;20120;-71
2022/09/01 08:23:25;;;;;;;4.70;2.80;;;;;;;28.24;39.65;98959.22;5009922;28;20029;-71
2022/09/01 08:25:50;;;;;;;;;;;;;;;29.58;37.84;98967.56;5008073;28;20499;-71
2022/09/01 08:28:16;;;;;;;3.60;2.85;;;;;;;30.01;36.82;98961.25;5017126;28;19917;-71
2022/09/01 08:30:42;;;;;;;3.53;2.75;;;;;;;30.40;36.42;98973.41;5013815;28;20117;-72
2022/09/01 08:33:10;;;;;;;3.15;2.60;;;;;;;30.24;36.82;98959.16;4998109;28;20030;-68
2022/09/01 08:35:39;;;;;;;3.85;3.10;;;;;;;28.07;39.86;98954.38;5005119;28;20113;-71
2022/09/01 08:38:04;;;;;;;3.78;3.20;;;;;;;26.54;42.88;98972.25;5003780;28;20030;-71
2022/09/01 08:40:29;;;;;;;2.92;2.63;;;;;;;25.78;44.65;98968.69;5002650;28;20499;-66
2022/09/01 08:43:07;;;;;;;4.07;2.80;;;;;;;27.86;41.76;98972.69;5008409;28;20068;-68
2022/09/01 08:45:34;;;;;;;4.55;3.17;;;;;;;29.64;38.38;98963.50;4993478;28;20041;-67
2022/09/01 08:48:16;;;;;;;6.45;3.60;;;;;;;29.62;37.83;98927.56;5010976;28;20042;-67
2022/09/01 08:50:47;;;;;;;5.57;3.95;;;;;;;28.65;39.55;98962.97;4987371;28;20072;-73
2022/09/01 08:53:37;;;;;;;3.85;3.03;;;;;;;29.76;37.68;98966.50;5012083;28;20022;-72
2022/09/01 08:56:03;;;;;;;2.90;2.60;;;;;;;30.26;36.49;98957.66;5010777;28;20080;-72
2022/09/01 08:58:30;;;;;;;4.18;2.90;;;;;;;31.11;35.56;98956.13;5011394;28;20100;-71
2022/09/01 09:01:03;;;;;;;3.70;2.70;;;;;;;31.66;34.70;98963.56;5005703;28;20061;-72
2022/09/01 09:03:48;;;;;;;2.63;2.42;;;;;;;31.29;35.11;98970.84;5001905;28;20048;-71
2022/09/01 09:06:42;;;;;;;4.50;2.60;;;;;;;29.15;38.07;98980.25;4986418;28;20030;-71
2022/09/01 09:09:08;;;;;;;5.18;2.55;;;;;;;27.94;40.52;98981.09;4990761;28;20033;-71
2022/09/01 09:11:49;;;;;;;4.03;3.15;;;;;;;26.52;43.51;98984.78;5010085;28;20549;-71
2022/09/01 09:14:29;;;;;;;5.03;3.03;;;;;;;26.89;42.90;98979.09;4986895;28;20042;-71
2022/09/01 09:16:55;;;;;;;4.20;3.25;;;;;;;25.89;45.09;98978.56;4997022;28;20033;-71
2022/09/01 09:19:25;;;;;;;4.25;3.35;;;;;;;24.51;48.40;98985.66;5008437;28;20033;-71
2022/09/01 09:21:53;;;;;;;3.85;3.05;;;;;;;24.22;48.75;98991.97;5006935;28;21049;-71
2022/09/01 09:24:46;;;;;;;4.50;3.30;;;;;;;23.85;50.16;98992.53;5011336;28;20530;-71
2022/09/01 09:27:33;;;;;;;4.63;3.35;;;;;;;23.19;52.36;98986.19;5024308;22;20065;-74
2022/09/01 09:30:00;;;;;;;4.38;3.45;;;;;;;22.50;54.10;98962.84;4990570;28;20495;-75
2022/09/01 09:33:04;;;;;;;4.68;3.72;;;;;;;22.58;54.88;98985.47;4992550;28;20041;-74
2022/09/01 09:35:36;;;;;;;8.10;3.40;;;;;;;22.35;55.71;98975.84;4988676;28;20101;-75
2022/09/01 09:38:27;;;;;;;5.53;4.00;;;;;;;21.85;57.69;98986.50;5006041;28;20041;-74
2022/09/01 09:41:13;;;;;;;6.00;4.40;;;;;;;21.51;59.81;98987.00;4981988;28;20197;-73
2022/09/01 09:43:45;;;;;;;6.47;4.22;;;;;;;21.29;60.50;98970.66;4983358;28;20039;-73
2022/09/01 09:46:23;;;;;;;6.00;3.78;;;;;;;21.46;60.66;98981.47;4994951;28;20033;-73
2022/09/01 09:49:08;;;;;;;5.55;3.53;;;;;;;21.16;60.16;98949.94;4992366;28;20030;-73
2022/09/01 09:51:35;;;;;;;5.05;3.78;;;;;;;21.23;60.90;98991.81;4982567;28;20099;-73
2022/09/01 09:54:33;;;;;;;6.25;4.45;;;;;;;21.06;61.91;98991.16;4980776;28;20121;-74
2022/09/01 09:57:07;;;;;;;5.50;3.70;;;;;;;21.05;61.60;98989.53;4979303;28;20046;-73
2022/09/01 10:00:00;;;;;;;5.75;3.50;;;;;;;21.19;61.57;98981.59;4995674;28;20109;-73
2022/09/01 10:02:41;;;;;;;5.15;3.53;;;;;;;21.52;59.81;98977.63;4984557;28;20034;-75
2022/09/01 10:05:36;;;;;;;5.38;3.22;;;;;;;21.87;58.91;98978.81;4980224;28;20360;-72
2022/09/01 10:08:04;;;;;;;6.13;3.30;;;;;;;22.11;57.12;98976.34;4986275;28;20894;-73
2022/09/01 10:10:55;;;;;;;4.15;2.92;;;;;;;22.56;55.99;98971.13;4982146;28;20832;-72
2022/09/01 10:13:23;;;;;;;4.88;2.95;;;;;;;22.72;54.48;98950.72;4984579;28;20129;-72
2022/09/01 10:15:55;;;;;;;4.82;2.85;;;;;;;23.01;54.30;98966.66;4983834;28;20030;-74
2022/09/01 10:18:24;;;;;;;5.00;3.15;;;;;;;23.22;53.91;98961.91;4985751;28;20146;-75
2022/09/01 10:20:59;;;;;;;4.20;3.40;;;;;;;22.66;55.08;98951.81;4990891;28;20503;-74
2022/09/01 10:23:26;;;;;;;5.30;3.33;;;;;;;22.72;55.07;98950.72;4985127;28;20094;-74
2022/09/01 10:25:58;;;;;;;6.55;3.40;;;;;;;23.25;54.12;98955.81;4990450;28;20048;-73
2022/09/01 10:28:25;;;;;;;3.85;3.10;;;;;;;23.63;52.92;98962.50;4992750;28;20022;-74
2022/09/01 10:30:52;;;;;;;4.03;3.08;;;;;;;24.25;51.88;98941.63;4995042;28;20022;-76
2022/09/01 10:33:20;;;;;;;3.15;2.47;;;;;;;25.90;47.43;98960.78;4992632;28;20026;-76
2022/09/01 10:35:50;;;;;;;4.50;2.80;;;;;;;25.29;47.56;98965.22;5005892;28;20101;-76
2022/09/01 10:38:18;;;;;;;3.78;2.50;;;;;;;24.86;49.02;98964.28;4987857;28;20112;-76
2022/09/01 10:41:05;;;;;;;3.28;2.67;;;;;;;24.77;48.74;98963.28;4982088;28;20026;-75
2022/09/01 10:43:43;;;;;;;3.97;2.60;;;;;;;23.66;50.66;98973.00;4989149;28;20026;-74
2022/09/01 10:46:18;;;;;;;3.45;2.70;;;;;;;23.31;52.28;98976.75;4985981;28;20042;-75
2022/09/01 10:48:44;;;;;;;4.20;3.13;;;;;;;23.46;52.17;98962.88;4996511;28;20602;-74
2022/09/01 10:51:12;;;;;;;3.83;3.10;;;;;;;23.91;51.07;98965.66;5000571;28;20026;-76
2022/09/01 10:53:41;;;;;;;3.20;2.90;;;;;;;24.48;49.39;98966.91;4986817;28;20373;-74
2022/09/01 10:56:16;;;;;;;2.77;2.40;;;;;;;25.47;46.67;98952.50;4987603;28;20161;-73
2022/09/01 10:59:04;;;;;;;3.55;2.80;;;;;;;25.74;45.69;98949.06;4987090;28;20078;-74
2022/09/01 11:02:03;;;;;;;4.35;2.70;;;;;;;28.29;41.18;98947.16;4986747;28;20061;-75
2022/09/01 11:04:29;;;;;;;;;;;;;;;28.90;38.83;98951.13;4987291;28;20664;-74
2022/09/01 11:06:57;;;;;;;3.00;2.17;;;;;;;28.97;38.77;98940.34;4988357;28;19960;-74
2022/09/01 11:09:27;;;;;;;5.57;2.40;;;;;;;30.81;36.57;98933.72;4982838;28;20465;-67
2022/09/01 11:12:10;;;;;;;5.97;2.30;;;;;;;32.52;33.17;98933.22;4984669;28;20058;-68
2022/09/01 11:14:54;;;;;;;3.90;1.90;;;;;;;31.88;33.47;98926.03;4978730;28;20030;-68
2022/09/01 11:17:32;;;;;;;3.03;2.17;;;;;;;30.38;35.84;98929.06;4982242;28;20105;-67
2022/09/01 11:20:27;;;;;;;2.15;1.58;;;;;;;31.69;33.02;98922.91;4982833;28;20026;-68
2022/09/01 11:22:55;;;;;;;2.33;1.40;;;;;;;33.91;30.53;98919.31;4969327;28;20031;-69
2022/09/01 11:25:38;;;;;;;1.95;1.50;;;;;;;35.76;27.80;98922.50;4982836;28;22175;-69
2022/09/01 11:28:14;;;;;;;3.35;1.50;;;;;;;35.89;27.64;98921.19;4988702;28;20116;-69
2022/09/01 11:30:53;;;;;;;2.88;1.42;;;;;;;33.47;30.69;98914.34;4985870;28;20036;-68
2022/09/01 11:33:45;;;;;;;3.83;1.33;;;;;;;31.49;33.14;98919.75;4982704;28;20027;-68
2022/09/01 11:36:27;;;;;;;2.30;1.98;;;;;;;29.41;36.54;98918.19;4989144;28;20033;-69
2022/09/01 11:39:28;;;;;;;2.13;1.90;;;;;;;30.24;35.45;98920.06;4987294;28;20037;-65